Terminal Aerodrome Forecast
Issued by NWS

Home | Current Version | Previous Version | Text Only | Print | Product List | Glossary On
Versions: 1 2 3 4 5 6 7 8 9 10 11 12 13 14 15 16 17 18 19 20 21 22 23 24 25 26 27 28 29 30 31 32 33 34 35 36 37
000
FTUS45 KGJT 300205 AAA
TAFRIL
TAF AMD
KRIL 300205Z 3002/3024 35007KT P6SM VCTS SCT060CB BKN090
      TEMPO 3002/3003 VRB15G25KT 3SM +TSRA SCT030 OVC040CB
     FM300300 11008KT P6SM VCTS SCT050CB OVC090
      TEMPO 3003/3005 VRB10G20KT -TSRA SCT030 OVC040CB
     FM300500 14003KT P6SM VCSH SCT050 BKN070
     FM301200 VRB02KT P6SM SCT060 BKN090
     FM302000 05007KT P6SM VCTS SCT070CB BKN100=

USA.gov is the U.S. government's official web portal to all federal, state and local government web resources and services.